Time;durP1;ratioP1;P1;durP2;ratioP2;P2;SDS_P1;SDS_P2;PMS_P1;PMS_P2;Temp;Humidity;BMP_temperature;BMP_pressure;BME280_temperature;BME280_humidity;BME280_pressure;Samples;Min_cycle;Max_cycle;Signal;HPM_P1;HPM_P2
2023/01/28 00:00:28;;;;;;;10.63;5.82;;;;;;;-142.75;100.00;79417.72;5045156;28;20118;-67
2023/01/28 00:02:53;;;;;;;10.90;5.88;;;;;;;-142.75;100.00;79415.75;5037319;28;20408;-67
2023/01/28 00:05:19;;;;;;;8.70;5.20;;;;;;;-142.75;100.00;79433.47;5033508;28;20040;-66
2023/01/28 00:07:44;;;;;;;9.45;5.20;;;;;;;-142.75;100.00;79433.47;5040913;28;20078;-67
2023/01/28 00:10:10;;;;;;;8.15;5.18;;;;;;;-142.75;100.00;79425.59;5048240;28;20045;-66
2023/01/28 00:12:35;;;;;;;9.90;5.90;;;;;;;-142.75;100.00;79421.66;5046105;28;20024;-66
2023/01/28 00:15:01;;;;;;;10.15;5.63;;;;;;;-142.75;100.00;79425.59;5051618;28;20025;-66
2023/01/28 00:17:27;;;;;;;10.40;5.77;;;;;;;-142.75;100.00;79433.47;5041874;28;20504;-67
2023/01/28 00:19:53;;;;;;;8.90;4.80;;;;;;;-142.75;100.00;79429.53;5051836;28;20087;-68
2023/01/28 00:22:18;;;;;;;10.48;5.68;;;;;;;-142.75;100.00;79423.63;5044803;28;20096;-66
2023/01/28 00:24:44;;;;;;;11.02;5.55;;;;;;;-142.75;100.00;79431.50;5042001;28;20404;-67
2023/01/28 00:27:10;;;;;;;;;;;;;;;-142.75;100.00;79425.59;5041774;28;20032;-66
2023/01/28 00:29:35;;;;;;;9.10;5.17;;;;;;;-142.75;100.00;79435.44;5045523;28;19913;-67
2023/01/28 00:32:00;;;;;;;9.50;5.07;;;;;;;-142.75;100.00;79417.72;5033080;28;20120;-66
2023/01/28 00:34:26;;;;;;;9.45;5.80;;;;;;;-142.75;100.00;79421.66;5029979;28;20079;-68
2023/01/28 00:36:56;;;;;;;;;;;;;;;-142.75;100.00;79425.59;5043040;28;20118;-66
2023/01/28 00:39:25;;;;;;;10.40;5.23;;;;;;;-142.75;100.00;79425.59;5044159;28;19913;-66
2023/01/28 00:41:52;;;;;;;9.50;5.30;;;;;;;-142.75;100.00;79457.13;5036389;28;20399;-67
2023/01/28 00:44:18;;;;;;;8.63;5.03;;;;;;;-142.75;100.00;79449.25;5048097;28;20477;-67
2023/01/28 00:46:44;;;;;;;9.70;5.73;;;;;;;-142.75;100.00;79449.25;5051232;28;20039;-67
2023/01/28 00:49:09;;;;;;;10.23;5.28;;;;;;;-142.75;100.00;79451.22;5044120;28;20492;-67
2023/01/28 00:51:35;;;;;;;;;;;;;;;-142.75;100.00;79476.81;5033065;28;20438;-68
2023/01/28 00:54:00;;;;;;;9.33;5.53;;;;;;;-142.75;100.00;79492.56;5040385;28;19999;-67
2023/01/28 00:56:26;;;;;;;10.82;5.70;;;;;;;-142.75;100.00;79494.53;5052333;28;20029;-67
2023/01/28 00:58:51;;;;;;;;;;;;;;;-142.75;100.00;79478.78;5051527;28;20096;-67
2023/01/28 01:01:25;;;;;;;9.03;5.13;;;;;;;-142.75;100.00;79484.69;5039335;28;19992;-67
2023/01/28 01:03:56;;;;;;;10.93;4.87;;;;;;;-142.75;100.00;79478.78;5031909;28;20025;-67
2023/01/28 01:06:23;;;;;;;10.67;5.83;;;;;;;-142.75;100.00;79466.97;5040113;28;20025;-68
2023/01/28 01:08:49;;;;;;;11.77;6.30;;;;;;;-142.75;100.00;79461.06;5052012;28;20509;-67
2023/01/28 01:11:14;;;;;;;9.30;5.68;;;;;;;-142.75;100.00;79459.09;5049858;28;20017;-67
2023/01/28 01:13:40;;;;;;;10.70;5.95;;;;;;;-142.75;100.00;79451.22;5051345;28;20032;-68
2023/01/28 01:16:15;;;;;;;11.70;6.07;;;;;;;-142.75;100.00;79449.25;5047963;28;20025;-66
2023/01/28 01:18:41;;;;;;;11.37;6.00;;;;;;;-142.75;100.00;79445.28;5052027;28;20021;-67
2023/01/28 01:21:08;;;;;;;11.00;6.15;;;;;;;-142.75;100.00;79443.31;5033829;28;20108;-68
2023/01/28 01:23:34;;;;;;;11.90;6.07;;;;;;;-142.75;100.00;79441.34;5051397;28;20044;-67
2023/01/28 01:26:00;;;;;;;10.35;6.05;;;;;;;-142.75;100.00;79435.44;5042895;28;20366;-67
2023/01/28 01:28:26;;;;;;;11.70;6.20;;;;;;;-142.75;100.00;79429.53;5030632;28;20029;-66
2023/01/28 01:31:02;;;;;;;9.80;5.85;;;;;;;-142.75;100.00;79427.56;5033213;28;20029;-67
2023/01/28 01:33:28;;;;;;;11.48;6.10;;;;;;;-142.75;100.00;79439.38;5038383;28;20033;-67
2023/01/28 01:35:55;;;;;;;12.00;6.07;;;;;;;-142.75;100.00;79445.28;5041450;28;20025;-67
2023/01/28 01:38:20;;;;;;;10.43;6.27;;;;;;;-142.75;100.00;79431.50;5046891;28;20021;-67
2023/01/28 01:40:46;;;;;;;13.13;6.30;;;;;;;-142.75;100.00;79433.47;5040004;28;20025;-67
2023/01/28 01:43:21;;;;;;;10.90;6.20;;;;;;;-142.75;100.00;79484.69;5049361;28;20032;-67
2023/01/28 01:45:59;;;;;;;11.20;5.45;;;;;;;-142.75;100.00;79504.41;5044667;28;20036;-66
2023/01/28 01:48:32;;;;;;;10.13;5.63;;;;;;;-142.75;100.00;79514.25;5043184;28;20053;-67
2023/01/28 01:51:07;;;;;;;11.40;5.73;;;;;;;-142.75;100.00;79490.59;5034720;28;20032;-67
2023/01/28 01:53:38;;;;;;;12.60;6.23;;;;;;;-142.75;100.00;79524.09;5051061;28;20105;-67
2023/01/28 01:56:07;;;;;;;11.40;5.93;;;;;;;-142.75;100.00;79518.19;5043156;28;20025;-67
2023/01/28 01:58:36;;;;;;;9.93;6.27;;;;;;;-142.75;100.00;79522.13;5043049;28;20028;-68
2023/01/28 02:01:02;;;;;;;9.77;5.83;;;;;;;-142.75;100.00;79500.47;5051047;28;20021;-68
2023/01/28 02:03:35;;;;;;;13.45;7.05;;;;;;;-142.75;100.00;79488.63;5045418;28;20040;-67
2023/01/28 02:06:02;;;;;;;12.73;6.20;;;;;;;-142.75;100.00;79496.50;5044401;28;20026;-68
2023/01/28 02:08:27;;;;;;;11.67;6.43;;;;;;;-142.75;100.00;79484.69;5047676;28;20082;-67
2023/01/28 02:11:04;;;;;;;11.77;5.78;;;;;;;-142.75;100.00;79472.88;5038061;28;20025;-67
2023/01/28 02:13:33;;;;;;;;;;;;;;;-142.75;100.00;79480.75;5051013;28;20034;-68
2023/01/28 02:15:59;;;;;;;11.10;6.07;;;;;;;-142.75;100.00;79502.44;5032624;28;19913;-67
2023/01/28 02:18:25;;;;;;;11.13;5.83;;;;;;;-142.75;100.00;79486.66;5047307;28;20059;-67
2023/01/28 02:21:09;;;;;;;12.98;6.78;;;;;;;-142.75;100.00;79486.66;5042575;28;20052;-67
2023/01/28 02:24:00;;;;;;;15.17;6.60;;;;;;;-142.75;100.00;79488.63;5049101;28;20067;-66
2023/01/28 02:26:52;;;;;;;11.10;6.57;;;;;;;-142.75;100.00;79490.59;5014551;28;20041;-68
2023/01/28 02:29:36;;;;;;;9.77;5.60;;;;;;;-142.75;100.00;79504.41;5042553;28;20104;-67
2023/01/28 02:32:02;;;;;;;13.03;6.03;;;;;;;-142.75;100.00;79506.38;5045254;28;20017;-67
2023/01/28 02:34:38;;;;;;;10.05;5.65;;;;;;;-142.75;100.00;79533.94;5043625;28;20032;-67
2023/01/28 02:37:09;;;;;;;6.32;3.95;;;;;;;-142.75;100.00;79533.94;5030861;28;20037;-67
2023/01/28 02:39:41;;;;;;;9.47;5.53;;;;;;;-142.75;100.00;79530.00;5040062;28;20029;-68
2023/01/28 02:42:13;;;;;;;10.67;6.03;;;;;;;-142.75;100.00;79533.94;5030186;28;20108;-69
2023/01/28 02:44:38;;;;;;;13.50;6.50;;;;;;;-142.75;100.00;79512.28;5030242;28;20440;-69
2023/01/28 02:49:58;;;;;;;12.30;6.13;;;;;;;-142.75;100.00;79518.19;5040056;28;20068;-69
2023/01/28 02:55:46;;;;;;;11.20;6.23;;;;;;;-142.75;100.00;79492.56;5050830;28;20040;-69
2023/01/28 02:58:50;;;;;;;9.87;5.77;;;;;;;-142.75;100.00;79520.16;5050548;28;20031;-70
2023/01/28 03:01:29;;;;;;;13.37;6.27;;;;;;;-142.75;100.00;79510.31;5038303;28;20067;-69
2023/01/28 03:04:07;;;;;;;11.23;5.97;;;;;;;-142.75;100.00;79539.84;5035879;28;20503;-69
2023/01/28 03:06:57;;;;;;;13.33;6.57;;;;;;;-142.75;100.00;79514.25;5035378;28;20029;-69
2023/01/28 03:09:25;;;;;;;10.40;6.13;;;;;;;-142.75;100.00;79508.34;5034697;28;20029;-69
2023/01/28 03:37:28;;;;;;;11.30;6.17;;;;;;;-142.75;100.00;79482.72;5050139;28;20036;-69
2023/01/28 03:39:56;;;;;;;13.45;6.47;;;;;;;-142.75;100.00;79474.84;5050193;28;20029;-70
2023/01/28 03:42:22;;;;;;;13.50;6.97;;;;;;;-142.75;100.00;79486.66;5045870;28;20163;-69
2023/01/28 03:44:54;;;;;;;10.55;5.85;;;;;;;-142.75;100.00;79528.03;5050884;28;20021;-69
2023/01/28 03:47:19;;;;;;;12.90;6.47;;;;;;;-142.75;100.00;79510.31;5053711;28;20033;-69
2023/01/28 03:49:50;;;;;;;10.05;5.18;;;;;;;-142.75;100.00;79504.41;5042948;28;20082;-68
2023/01/28 03:52:17;;;;;;;12.47;5.90;;;;;;;-142.75;100.00;79484.69;5036405;28;20123;-68
2023/01/28 03:54:47;;;;;;;9.50;5.33;;;;;;;-142.75;100.00;79484.69;5051990;28;20028;-69
2023/01/28 03:57:17;;;;;;;9.70;5.23;;;;;;;-142.75;100.00;79478.78;5053512;28;20048;-69
2023/01/28 03:59:43;;;;;;;6.23;4.10;;;;;;;-142.75;100.00;79484.69;5053289;28;20096;-69
2023/01/28 04:02:10;;;;;;;8.65;5.35;;;;;;;-142.75;100.00;79484.69;5038688;28;20112;-68
2023/01/28 04:04:39;;;;;;;7.93;4.63;;;;;;;-142.75;100.00;79490.59;5033031;28;20548;-69
2023/01/28 04:07:14;;;;;;;9.77;5.70;;;;;;;-142.75;100.00;79484.69;5048837;28;20463;-69
2023/01/28 04:09:39;;;;;;;8.13;4.80;;;;;;;-142.75;100.00;79490.59;5040551;28;20108;-67
2023/01/28 04:12:05;;;;;;;7.00;4.35;;;;;;;-142.75;100.00;79496.50;5033244;28;20104;-67
2023/01/28 04:14:31;;;;;;;6.05;3.75;;;;;;;-142.75;100.00;79504.41;5034917;28;20033;-69
2023/01/28 04:16:57;;;;;;;;;;;;;;;-142.75;100.00;79504.41;5033296;28;20480;-69
2023/01/28 04:19:22;;;;;;;9.17;3.47;;;;;;;-142.75;100.00;79516.22;5039265;28;19913;-69
2023/01/28 04:21:48;;;;;;;5.57;3.25;;;;;;;-142.75;100.00;79533.94;5044863;28;20021;-69
2023/01/28 04:24:15;;;;;;;5.63;3.63;;;;;;;-142.75;100.00;79533.94;5031477;28;20049;-69
2023/01/28 04:26:40;;;;;;;8.03;3.63;;;;;;;-142.75;100.00;79543.78;5033041;28;20025;-69
2023/01/28 04:29:06;;;;;;;5.05;3.65;;;;;;;-142.75;100.00;79549.69;5052707;28;20032;-68
2023/01/28 04:31:32;;;;;;;5.47;3.25;;;;;;;-142.75;100.00;79537.88;5046259;28;20029;-69
2023/01/28 04:33:59;;;;;;;5.53;3.37;;;;;;;-142.75;100.00;79531.97;5032674;28;20072;-69
2023/01/28 04:36:24;;;;;;;7.67;3.60;;;;;;;-142.75;100.00;79543.78;5042355;28;20024;-68
2023/01/28 04:38:50;;;;;;;7.78;3.47;;;;;;;-142.75;100.00;79535.91;5052668;28;20028;-69
2023/01/28 04:41:15;;;;;;;7.57;4.03;;;;;;;-142.75;100.00;79528.03;5049003;28;20090;-69
2023/01/28 04:43:40;;;;;;;8.32;3.08;;;;;;;-142.75;100.00;79528.03;5049079;28;20021;-69
2023/01/28 04:46:06;;;;;;;5.97;3.60;;;;;;;-142.75;100.00;79524.09;5047719;28;20476;-69
2023/01/28 04:48:33;;;;;;;4.50;3.13;;;;;;;-142.75;100.00;79516.22;5039603;28;20055;-68
2023/01/28 04:50:59;;;;;;;6.10;3.63;;;;;;;-142.75;100.00;79512.28;5052435;28;20487;-68
2023/01/28 04:53:24;;;;;;;7.05;3.70;;;;;;;-142.75;100.00;79520.16;5035449;28;20092;-69
2023/01/28 04:55:50;;;;;;;8.13;3.60;;;;;;;-142.75;100.00;79504.41;5032026;28;20027;-68
2023/01/28 04:58:15;;;;;;;;;;;;;;;-142.75;100.00;79520.16;5032790;28;20029;-70
2023/01/28 05:00:40;;;;;;;6.43;3.17;;;;;;;-142.75;100.00;79516.22;5046765;28;20397;-69
2023/01/28 05:03:05;;;;;;;5.38;3.08;;;;;;;-142.75;100.00;79545.75;5050635;28;20035;-69
2023/01/28 05:05:31;;;;;;;4.90;3.08;;;;;;;-142.75;100.00;79598.94;5052321;28;20028;-67
2023/01/28 05:07:57;;;;;;;6.38;3.35;;;;;;;-142.75;100.00;79583.19;5050854;28;20028;-68
2023/01/28 05:10:22;;;;;;;;;;;;;;;-142.75;100.00;79559.56;5044029;28;20048;-69
2023/01/28 05:12:48;;;;;;;4.90;2.97;;;;;;;-142.75;100.00;79571.38;5032088;28;20331;-69
2023/01/28 05:15:17;;;;;;;;;;;;;;;-142.75;100.00;79557.59;5032373;28;20021;-68
2023/01/28 05:17:43;;;;;;;4.93;3.00;;;;;;;-142.75;100.00;79561.53;5032236;28;19917;-69
2023/01/28 05:20:11;;;;;;;5.05;3.05;;;;;;;-142.75;100.00;79573.34;5043641;28;20135;-69
2023/01/28 05:22:37;;;;;;;5.97;3.20;;;;;;;-142.75;100.00;79563.50;5033659;28;20108;-68
2023/01/28 05:25:03;;;;;;;4.80;2.67;;;;;;;-142.75;100.00;79555.63;5046168;28;20124;-69
2023/01/28 05:27:28;;;;;;;;;;;;;;;-142.75;100.00;79551.69;5050913;28;20033;-69
2023/01/28 05:29:54;;;;;;;6.97;3.17;;;;;;;-142.75;100.00;79561.53;5044322;28;20011;-70
2023/01/28 05:32:19;;;;;;;5.43;3.25;;;;;;;-142.75;100.00;79569.41;5048356;28;20112;-69
2023/01/28 05:34:44;;;;;;;6.20;3.72;;;;;;;-142.75;100.00;79569.41;5051256;28;20039;-68
2023/01/28 05:37:10;;;;;;;4.50;2.67;;;;;;;-142.75;100.00;79612.75;5051704;28;20020;-69
2023/01/28 05:39:35;;;;;;;4.90;2.83;;;;;;;-142.75;100.00;79608.81;5043067;28;20024;-69
2023/01/28 05:42:00;;;;;;;6.70;3.25;;;;;;;-142.75;100.00;79602.88;5046947;28;20032;-68
2023/01/28 05:44:26;;;;;;;5.40;3.13;;;;;;;-142.75;100.00;79593.03;5039479;28;20029;-69
2023/01/28 05:46:51;;;;;;;5.00;2.85;;;;;;;-142.75;100.00;79583.19;5030340;28;20021;-69
2023/01/28 05:49:16;;;;;;;4.57;2.97;;;;;;;-142.75;100.00;79581.22;5030306;28;20511;-69
2023/01/28 05:51:42;;;;;;;4.93;3.20;;;;;;;-142.75;100.00;79573.34;5033196;28;20524;-70
2023/01/28 05:54:08;;;;;;;4.93;2.95;;;;;;;-142.75;100.00;79563.50;5043119;28;20457;-69
2023/01/28 05:56:35;;;;;;;5.50;3.33;;;;;;;-142.75;100.00;79555.63;5038496;28;20049;-69
2023/01/28 05:59:04;;;;;;;4.90;3.07;;;;;;;-142.75;100.00;79555.63;5032806;28;20489;-69
2023/01/28 06:01:29;;;;;;;6.20;3.23;;;;;;;-142.75;100.00;79567.44;5039173;28;20013;-69
2023/01/28 06:03:55;;;;;;;6.38;3.08;;;;;;;-142.75;100.00;79553.63;5041017;28;20021;-68
2023/01/28 06:06:20;;;;;;;5.20;3.35;;;;;;;-142.75;100.00;79549.69;5031407;28;20067;-69
2023/01/28 06:08:45;;;;;;;5.03;3.28;;;;;;;-142.75;100.00;79547.72;5034399;28;20029;-68
2023/01/28 06:11:11;;;;;;;6.95;3.92;;;;;;;-142.75;100.00;79579.25;5049617;28;20032;-69
2023/01/28 06:13:36;;;;;;;5.97;3.70;;;;;;;-142.75;100.00;79565.47;5048249;28;20028;-69
2023/01/28 06:16:02;;;;;;;7.65;3.55;;;;;;;-142.75;100.00;79567.44;5030992;28;20032;-69
2023/01/28 06:18:27;;;;;;;;;;;;;;;-142.75;100.00;79595.00;5038481;28;20025;-68
2023/01/28 06:20:53;;;;;;;6.53;3.30;;;;;;;-142.75;100.00;79620.63;5030916;28;19917;-68
2023/01/28 06:23:18;;;;;;;5.70;3.75;;;;;;;-142.75;100.00;79600.91;5030153;28;21697;-69
2023/01/28 06:25:43;;;;;;;;;;;;;;;-142.75;100.00;79589.09;5034655;28;20029;-69
2023/01/28 06:28:09;;;;;;;6.37;3.37;;;;;;;-142.75;100.00;79598.94;5030905;28;20360;-70
2023/01/28 06:30:34;;;;;;;6.55;3.58;;;;;;;-142.75;100.00;79598.94;5037603;28;20040;-69
2023/01/28 06:32:59;;;;;;;5.93;3.65;;;;;;;-142.75;100.00;79593.03;5050310;28;20025;-68
2023/01/28 06:35:25;;;;;;;6.00;3.65;;;;;;;-142.75;100.00;79604.88;5034504;28;20040;-68
2023/01/28 06:37:51;;;;;;;5.78;3.70;;;;;;;-142.75;100.00;79598.94;5042035;28;20025;-68
2023/01/28 06:40:17;;;;;;;7.20;4.40;;;;;;;-142.75;100.00;79598.94;5031662;28;20017;-68
2023/01/28 06:42:42;;;;;;;9.60;3.83;;;;;;;-142.75;100.00;79636.38;5041927;28;20047;-69
2023/01/28 06:45:08;;;;;;;8.02;3.80;;;;;;;-142.75;100.00;79624.56;5036295;28;20504;-69
2023/01/28 06:47:33;;;;;;;6.68;3.80;;;;;;;-142.75;100.00;79606.84;5043285;28;20024;-69
2023/01/28 06:49:58;;;;;;;6.38;3.40;;;;;;;-142.75;100.00;79606.84;5047178;28;20396;-69
2023/01/28 06:52:24;;;;;;;6.32;4.00;;;;;;;-142.75;100.00;79596.97;5048687;28;20068;-68
2023/01/28 06:54:49;;;;;;;5.57;3.67;;;;;;;-142.75;100.00;79595.00;5050136;28;20108;-69
2023/01/28 06:57:14;;;;;;;8.25;4.30;;;;;;;-142.75;100.00;79591.06;5048014;28;20102;-69
2023/01/28 06:59:40;;;;;;;8.15;3.80;;;;;;;-142.75;100.00;79602.88;5044926;28;20021;-69
2023/01/28 07:02:05;;;;;;;8.35;3.95;;;;;;;-142.75;100.00;79600.91;5050441;28;20029;-69
2023/01/28 07:04:31;;;;;;;11.55;4.03;;;;;;;-142.75;100.00;79606.84;5036120;28;20037;-69
2023/01/28 07:06:56;;;;;;;6.78;3.92;;;;;;;-142.75;100.00;79595.00;5032721;28;20392;-69
2023/01/28 07:09:21;;;;;;;5.65;3.70;;;;;;;-142.75;100.00;79602.88;5037990;28;20025;-69
2023/01/28 07:11:47;;;;;;;;;;;;;;;-142.75;100.00;79606.84;5032634;28;20030;-69
2023/01/28 07:14:12;;;;;;;6.83;3.37;;;;;;;-142.75;100.00;79606.84;5049917;28;19947;-69
2023/01/28 07:16:37;;;;;;;6.70;3.90;;;;;;;-142.75;100.00;79610.78;5048760;28;20031;-69
2023/01/28 07:19:02;;;;;;;8.02;4.10;;;;;;;-142.75;100.00;79595.00;5034383;28;20408;-69
2023/01/28 07:21:28;;;;;;;6.35;4.03;;;;;;;-142.75;100.00;79616.69;5042219;28;20029;-69
2023/01/28 07:23:53;;;;;;;7.55;4.47;;;;;;;-142.75;100.00;79598.94;5043509;28;20030;-68
2023/01/28 07:26:18;;;;;;;7.22;3.95;;;;;;;-142.75;100.00;79595.00;5043840;28;20075;-69
2023/01/28 07:28:44;;;;;;;6.03;3.42;;;;;;;-142.75;100.00;79598.94;5037124;28;20025;-69
2023/01/28 07:31:10;;;;;;;;;;;;;;;-142.75;100.00;79585.16;5034584;28;20029;-69
2023/01/28 07:33:35;;;;;;;6.90;3.87;;;;;;;-142.75;100.00;79583.19;5034222;28;20264;-69
2023/01/28 07:36:00;;;;;;;6.72;4.20;;;;;;;-142.75;100.00;79579.25;5043532;28;20026;-69
2023/01/28 07:38:26;;;;;;;6.55;3.85;;;;;;;-142.75;100.00;79571.38;5048121;28;20021;-69
2023/01/28 07:40:51;;;;;;;8.13;3.70;;;;;;;-142.75;100.00;79587.13;5053805;28;20021;-68
2023/01/28 07:43:16;;;;;;;8.35;4.78;;;;;;;-142.75;100.00;79602.88;5050888;28;20041;-68
2023/01/28 07:45:42;;;;;;;6.80;4.63;;;;;;;-142.75;100.00;79654.13;5033991;28;20037;-69
2023/01/28 07:48:10;;;;;;;6.25;4.35;;;;;;;-142.75;100.00;79634.41;5043645;28;20049;-69
2023/01/28 07:50:37;;;;;;;6.70;4.40;;;;;;;-142.75;100.00;79622.59;5032698;28;20021;-68
2023/01/28 07:53:08;;;;;;;8.07;4.60;;;;;;;-142.75;100.00;79632.44;5031992;28;20022;-69
2023/01/28 07:55:36;;;;;;;8.73;4.07;;;;;;;-142.75;100.00;79630.47;5033880;28;20075;-69
2023/01/28 07:58:03;;;;;;;8.83;4.63;;;;;;;-142.75;100.00;79646.22;5053725;28;20096;-69
2023/01/28 08:00:31;;;;;;;8.13;5.20;;;;;;;-142.75;100.00;79622.59;5035035;28;20132;-69
2023/01/28 08:03:05;;;;;;;7.40;4.27;;;;;;;-142.75;100.00;79632.44;5037540;28;20506;-69
2023/01/28 08:05:48;;;;;;;7.53;4.60;;;;;;;-142.75;100.00;79610.78;5037727;28;20025;-68
2023/01/28 08:08:14;;;;;;;7.97;4.73;;;;;;;-142.75;100.00;79626.53;5035681;28;20049;-69
2023/01/28 08:10:40;;;;;;;7.27;4.10;;;;;;;-142.75;100.00;79638.34;5053095;28;20075;-69
2023/01/28 08:13:06;;;;;;;6.05;3.83;;;;;;;-142.75;100.00;79636.38;5053047;28;20099;-69
2023/01/28 08:15:32;;;;;;;7.17;3.83;;;;;;;-142.75;100.00;79642.28;5051692;28;20033;-69
2023/01/28 08:17:58;;;;;;;8.33;3.80;;;;;;;-142.75;100.00;79606.84;5033082;28;20026;-69
2023/01/28 08:20:25;;;;;;;6.53;4.13;;;;;;;-142.75;100.00;79575.31;5038865;28;20088;-69
2023/01/28 08:22:51;;;;;;;6.00;3.70;;;;;;;-142.75;100.00;79547.72;5052712;28;20025;-68
2023/01/28 08:25:17;;;;;;;5.88;3.85;;;;;;;-142.75;100.00;79543.78;5049942;28;20087;-69
2023/01/28 08:27:42;;;;;;;6.28;3.92;;;;;;;-142.75;100.00;79528.03;5033740;28;20022;-70
2023/01/28 08:30:08;;;;;;;6.82;4.07;;;;;;;-142.75;100.00;79567.44;5031701;28;20035;-69
2023/01/28 08:32:34;;;;;;;8.33;4.03;;;;;;;-142.75;100.00;79567.44;5049420;28;20047;-69
2023/01/28 08:35:00;;;;;;;7.38;4.05;;;;;;;-142.75;100.00;79563.50;5038850;28;20041;-70
2023/01/28 08:37:25;;;;;;;10.63;5.78;;;;;;;-142.75;100.00;79571.38;5033109;28;20021;-69
2023/01/28 08:39:50;;;;;;;8.20;4.85;;;;;;;-142.75;100.00;79606.84;5033626;28;20104;-69
2023/01/28 08:42:16;;;;;;;8.45;4.85;;;;;;;-142.75;100.00;79622.59;5038951;28;20063;-69
2023/01/28 08:44:41;;;;;;;9.65;4.78;;;;;;;-142.75;100.00;79642.28;5048674;28;20025;-69
2023/01/28 08:47:07;;;;;;;9.00;4.40;;;;;;;-142.75;100.00;79660.03;5042801;28;20028;-69
2023/01/28 08:49:32;;;;;;;6.55;4.00;;;;;;;-142.75;100.00;79658.06;5051445;28;20059;-69
2023/01/28 08:51:57;;;;;;;6.38;3.95;;;;;;;-142.75;100.00;79650.16;5044076;28;20024;-69
2023/01/28 08:54:23;;;;;;;7.88;4.25;;;;;;;-142.75;100.00;79646.22;5032520;28;20028;-69
2023/01/28 08:56:48;;;;;;;10.35;4.40;;;;;;;-142.75;100.00;79642.28;5047951;28;20041;-69
2023/01/28 08:59:14;;;;;;;7.05;4.65;;;;;;;-142.75;100.00;79626.53;5037792;28;20384;-68
2023/01/28 09:01:39;;;;;;;9.15;5.13;;;;;;;-142.75;100.00;79551.69;5044113;28;20078;-69
2023/01/28 09:04:05;;;;;;;6.47;4.05;;;;;;;-142.75;100.00;79524.09;5037646;28;20108;-68
2023/01/28 09:06:31;;;;;;;;;;;;;;;-142.75;100.00;79486.66;5032866;28;20036;-69
2023/01/28 09:08:57;;;;;;;9.17;5.90;;;;;;;-142.75;100.00;79490.59;5032598;28;19919;-69
2023/01/28 09:11:22;;;;;;;7.20;4.73;;;;;;;-142.75;100.00;79457.13;5048042;28;20539;-68
2023/01/28 09:13:47;;;;;;;7.55;4.10;;;;;;;-142.75;100.00;79441.34;5039152;28;20021;-69
2023/01/28 09:16:13;;;;;;;7.07;4.45;;;;;;;-142.75;100.00;79439.38;5032196;28;20034;-68
2023/01/28 09:18:38;;;;;;;;;;;;;;;-142.75;100.00;79437.41;5032529;28;20025;-69
2023/01/28 09:21:06;;;;;;;6.83;4.43;;;;;;;-142.75;100.00;79445.28;5049539;28;19916;-69
2023/01/28 09:23:36;;;;;;;7.67;4.67;;;;;;;-142.75;100.00;79461.06;5034851;28;20052;-69
2023/01/28 09:26:02;;;;;;;7.27;4.07;;;;;;;-142.75;100.00;79488.63;5041803;28;20557;-69
2023/01/28 09:28:29;;;;;;;7.23;4.17;;;;;;;-142.75;100.00;79494.53;5036071;28;20025;-68
2023/01/28 09:30:59;;;;;;;;;;;;;;;-142.75;100.00;79496.50;5036477;28;20052;-68
2023/01/28 09:33:24;;;;;;;8.10;4.63;;;;;;;-142.75;100.00;79518.19;5042754;28;20438;-69
2023/01/28 09:35:50;;;;;;;8.15;4.70;;;;;;;-142.75;100.00;79518.19;5051307;28;20020;-69
2023/01/28 09:38:15;;;;;;;13.15;7.07;;;;;;;-142.75;100.00;79504.41;5034548;28;20037;-69
2023/01/28 09:40:43;;;;;;;8.48;5.00;;;;;;;-142.75;100.00;79508.34;5037563;28;20389;-69
2023/01/28 09:43:34;;;;;;;8.17;5.30;;;;;;;-142.75;100.00;79535.91;5030020;28;20033;-69
2023/01/28 09:46:03;;;;;;;12.77;6.50;;;;;;;-142.75;100.00;79506.38;5031768;28;20026;-69
2023/01/28 09:48:43;;;;;;;20.17;10.13;;;;;;;-142.75;100.00;79484.69;5031797;28;20022;-69
2023/01/28 09:51:14;;;;;;;10.43;5.70;;;;;;;-142.75;100.00;79466.97;5033002;28;20037;-69
2023/01/28 09:53:44;;;;;;;9.20;5.00;;;;;;;-142.75;100.00;79396.06;5031002;28;20025;-69
2023/01/28 09:56:19;;;;;;;17.60;5.43;;;;;;;-142.75;100.00;79356.66;5044246;28;20028;-68
2023/01/28 09:58:45;;;;;;;8.87;5.17;;;;;;;-142.75;100.00;79346.81;5038422;28;20029;-70
2023/01/28 10:01:51;;;;;;;10.18;5.93;;;;;;;-142.75;100.00;79289.69;5049938;28;20673;-69
2023/01/28 10:04:24;;;;;;;8.07;4.77;;;;;;;-142.75;100.00;79203.00;5001946;28;20042;-70
2023/01/28 10:06:53;;;;;;;7.50;4.37;;;;;;;-142.75;100.00;79173.47;5037714;28;20025;-70
2023/01/28 10:09:33;;;;;;;10.97;4.87;;;;;;;-142.75;100.00;79163.63;5040749;28;20484;-70
2023/01/28 10:12:30;;;;;;;6.97;4.80;;;;;;;-142.75;100.00;79189.22;5030869;28;20068;-69
2023/01/28 10:15:23;;;;;;;10.48;5.47;;;;;;;-142.75;100.00;79155.72;4977936;28;20048;-69
2023/01/28 10:17:55;;;;;;;6.43;4.23;;;;;;;-142.75;96.22;79102.56;5029939;28;20029;-70
2023/01/28 10:20:30;;;;;;;6.73;3.70;;;;;;;-142.75;94.88;79073.00;5031114;28;20057;-70
2023/01/28 10:23:04;;;;;;;6.63;4.13;;;;;;;-142.75;91.32;79023.75;5043437;28;20030;-70
2023/01/28 10:25:31;;;;;;;6.00;3.90;;;;;;;-142.75;90.04;79004.06;5029767;28;20026;-70
2023/01/28 10:27:57;;;;;;;6.87;4.30;;;;;;;-142.75;87.01;79002.09;5036350;28;20384;-67
2023/01/28 10:30:25;;;;;;;6.47;4.28;;;;;;;-142.75;88.33;78994.22;5047854;28;20033;-70
2023/01/28 10:33:09;;;;;;;7.27;4.17;;;;;;;-142.75;86.67;78986.34;5043555;28;20036;-68
2023/01/28 10:35:39;;;;;;;7.85;4.70;;;;;;;-142.75;84.56;78874.06;5040893;28;20032;-70
2023/01/28 10:38:09;;;;;;;6.28;4.07;;;;;;;-142.75;82.10;78948.91;5032725;28;20025;-70
2023/01/28 10:40:34;;;;;;;7.32;3.72;;;;;;;-142.75;80.92;78915.44;5047887;28;20028;-70
2023/01/28 10:43:00;;;;;;;6.28;3.63;;;;;;;-142.75;81.05;78933.16;5043951;28;20499;-69
2023/01/28 10:45:27;;;;;;;;;;;;;;;-142.75;80.73;78866.19;5051263;28;20399;-70
2023/01/28 10:48:17;;;;;;;5.28;3.45;;;;;;;-142.75;80.58;78944.97;5049476;28;19963;-70
2023/01/28 10:51:04;;;;;;;8.07;3.65;;;;;;;-142.75;81.63;78933.16;5029835;28;20032;-69
2023/01/28 10:53:39;;;;;;;5.90;3.60;;;;;;;-142.75;82.79;78921.34;5029250;28;20033;-69
2023/01/28 10:56:10;;;;;;;7.20;3.63;;;;;;;-142.75;81.57;78866.19;5030823;28;20017;-70
2023/01/28 10:58:47;;;;;;;10.68;4.35;;;;;;;-142.75;80.05;78830.75;5030980;28;20061;-70
2023/01/28 11:01:12;;;;;;;8.05;4.00;;;;;;;-142.75;78.16;78791.34;5045941;28;20433;-69
2023/01/28 11:03:39;;;;;;;5.68;3.28;;;;;;;-142.75;76.58;78769.69;5044338;28;20060;-70
2023/01/28 11:06:05;;;;;;;8.73;3.65;;;;;;;-142.75;77.30;78751.97;5050296;28;20435;-70
2023/01/28 11:08:30;;;;;;;6.05;3.45;;;;;;;-142.75;77.01;78797.25;5050662;28;20025;-70
2023/01/28 11:10:56;;;;;;;5.50;3.28;;;;;;;-142.75;75.49;78759.84;5043519;28;20040;-68
2023/01/28 11:13:28;;;;;;;4.57;2.97;;;;;;;-142.75;75.88;78759.84;5043401;28;20021;-70
2023/01/28 11:16:00;;;;;;;5.95;3.42;;;;;;;-142.75;76.66;78773.63;5036096;28;20519;-70
2023/01/28 11:18:32;;;;;;;6.93;3.88;;;;;;;-142.75;75.52;78732.25;5039767;28;20032;-70
2023/01/28 11:21:04;;;;;;;6.35;3.50;;;;;;;-142.75;74.00;78700.75;5034319;28;20018;-70
2023/01/28 11:23:33;;;;;;;5.95;3.45;;;;;;;-142.75;74.28;78769.69;5029389;28;20029;-70
2023/01/28 11:26:18;;;;;;;7.35;3.50;;;;;;;-142.75;75.10;78649.53;5043731;28;20028;-70
2023/01/28 11:28:43;;;;;;;6.95;3.45;;;;;;;-142.75;73.89;78663.31;5049034;28;20033;-69
2023/01/28 11:31:15;;;;;;;4.57;2.65;;;;;;;-142.75;72.02;78604.25;5048815;28;20462;-70
2023/01/28 11:33:57;;;;;;;5.15;3.10;;;;;;;-142.75;71.87;78637.72;5028825;28;20108;-68
2023/01/28 11:36:27;;;;;;;5.78;2.95;;;;;;;-142.75;74.63;78669.25;5028993;28;20053;-70
2023/01/28 11:38:55;;;;;;;6.07;3.05;;;;;;;-142.75;73.58;78633.78;5035240;28;20095;-70
2023/01/28 11:41:33;;;;;;;5.63;2.88;;;;;;;-142.75;72.07;78625.91;5041707;28;20041;-70
2023/01/28 11:44:08;;;;;;;6.03;3.33;;;;;;;-142.75;72.46;78562.88;5030094;28;20104;-68
2023/01/28 11:46:59;;;;;;;5.90;3.22;;;;;;;-142.75;73.10;78553.03;5030099;28;20034;-70
2023/01/28 11:49:50;;;;;;;5.68;3.30;;;;;;;-142.75;71.60;78499.88;5047025;28;20021;-70